Time;durP1;ratioP1;P1;durP2;ratioP2;P2;SDS_P1;SDS_P2;PMS_P1;PMS_P2;Temp;Humidity;BMP_temperature;BMP_pressure;BME280_temperature;BME280_humidity;BME280_pressure;Samples;Min_cycle;Max_cycle;Signal;HPM_P1;HPM_P2
2023/11/04 00:01:56;;;;;;;9.63;3.20;;;;;;;;;;5036667;28;20263;-68
2023/11/04 00:04:22;;;;;;;10.60;3.20;;;;;;;;;;5033178;28;20064;-67
2023/11/04 00:06:47;;;;;;;8.10;3.00;;;;;;;;;;5041873;28;20033;-67
2023/11/04 00:09:12;;;;;;;8.50;3.60;;;;;;;;;;5035060;28;20025;-68
2023/11/04 00:11:37;;;;;;;13.80;3.20;;;;;;;;;;5036054;28;20045;-69
2023/11/04 00:14:04;;;;;;;9.13;2.80;;;;;;;;;;5041352;28;20553;-69
2023/11/04 00:16:29;;;;;;;10.17;3.30;;;;;;;;;;5037188;28;20288;-68
2023/11/04 00:18:54;;;;;;;11.27;3.27;;;;;;;;;;5039208;28;20612;-68
2023/11/04 00:21:19;;;;;;;10.17;3.20;;;;;;;;;;5036619;28;20100;-68
2023/11/04 00:23:45;;;;;;;8.30;3.60;;;;;;;;;;5037954;28;20036;-69
2023/11/04 00:26:10;;;;;;;11.40;3.73;;;;;;;;;;5036298;28;20412;-68
2023/11/04 00:28:36;;;;;;;7.60;3.73;;;;;;;;;;5038270;28;20225;-68
2023/11/04 00:31:01;;;;;;;15.70;3.87;;;;;;;;;;5040432;28;20026;-68
2023/11/04 00:33:26;;;;;;;9.57;4.00;;;;;;;;;;5038442;28;20036;-67
2023/11/04 00:35:52;;;;;;;10.33;3.90;;;;;;;;;;5038743;28;20096;-67
2023/11/04 00:38:17;;;;;;;9.87;3.80;;;;;;;;;;5039319;28;20021;-67
2023/11/04 00:40:43;;;;;;;11.47;3.97;;;;;;;;;;5038167;28;20016;-67
2023/11/04 00:43:08;;;;;;;10.47;3.87;;;;;;;;;;5037093;28;20032;-68
2023/11/04 00:45:34;;;;;;;11.13;4.20;;;;;;;;;;5036645;28;20045;-67
2023/11/04 00:47:59;;;;;;;7.27;3.83;;;;;;;;;;5041365;28;20029;-66
2023/11/04 00:50:24;;;;;;;9.47;3.60;;;;;;;;;;5033392;28;20032;-67
2023/11/04 00:52:50;;;;;;;8.47;3.33;;;;;;;;;;5040941;28;20040;-68
2023/11/04 00:55:17;;;;;;;10.50;3.63;;;;;;;;;;5042537;28;20021;-68
2023/11/04 00:57:42;;;;;;;7.97;3.50;;;;;;;;;;5035607;28;20144;-67
2023/11/04 01:00:08;;;;;;;10.37;3.70;;;;;;;;;;5033723;28;20104;-70
2023/11/04 01:02:34;;;;;;;11.73;4.47;;;;;;;;;;5036521;28;20021;-69
2023/11/04 01:04:59;;;;;;;10.50;3.50;;;;;;;;;;5038476;28;20100;-70
2023/11/04 01:07:24;;;;;;;8.93;2.93;;;;;;;;;;5036853;28;20029;-69
2023/11/04 01:09:50;;;;;;;9.00;3.30;;;;;;;;;;5036375;28;20473;-69
2023/11/04 01:12:15;;;;;;;7.23;2.90;;;;;;;;;;5034790;28;20037;-70
2023/11/04 01:14:40;;;;;;;7.53;3.03;;;;;;;;;;5040250;28;20023;-70
2023/11/04 01:17:05;;;;;;;7.33;2.90;;;;;;;;;;5040608;28;20072;-69
2023/11/04 01:19:31;;;;;;;13.90;2.83;;;;;;;;;;5033811;28;20087;-70
2023/11/04 01:21:56;;;;;;;7.30;2.53;;;;;;;;;;5033834;28;20025;-70
2023/11/04 01:24:21;;;;;;;10.03;3.00;;;;;;;;;;5036687;28;20025;-70
2023/11/04 01:26:48;;;;;;;11.03;2.60;;;;;;;;;;5038531;28;20048;-70
2023/11/04 01:29:13;;;;;;;10.33;2.70;;;;;;;;;;5034640;28;20025;-69
2023/11/04 01:31:38;;;;;;;8.03;3.03;;;;;;;;;;5036463;28;20103;-70
2023/11/04 01:34:03;;;;;;;6.17;2.40;;;;;;;;;;5038310;28;20028;-70
2023/11/04 01:36:29;;;;;;;7.70;2.57;;;;;;;;;;5039683;28;20029;-70
2023/11/04 01:38:54;;;;;;;10.37;2.87;;;;;;;;;;5040101;28;20009;-70
2023/11/04 01:41:19;;;;;;;8.43;2.90;;;;;;;;;;5031943;28;20024;-70
2023/11/04 01:43:45;;;;;;;7.27;2.70;;;;;;;;;;5038228;28;20433;-70
2023/11/04 01:46:14;;;;;;;8.57;2.93;;;;;;;;;;5035917;28;20414;-69
2023/11/04 01:48:40;;;;;;;7.57;3.00;;;;;;;;;;5037580;28;20029;-70
2023/11/04 01:51:05;;;;;;;6.00;2.40;;;;;;;;;;5038184;28;20081;-69
2023/11/04 01:53:32;;;;;;;9.17;3.00;;;;;;;;;;5038570;28;20028;-69
2023/11/04 01:55:57;;;;;;;6.43;3.07;;;;;;;;;;5037445;28;20025;-69
2023/11/04 01:58:22;;;;;;;7.57;2.70;;;;;;;;;;5034153;28;20036;-69
2023/11/04 02:00:48;;;;;;;8.83;2.83;;;;;;;;;;5036636;28;20025;-69
2023/11/04 02:03:15;;;;;;;6.67;2.60;;;;;;;;;;5036613;28;20596;-70
2023/11/04 02:05:41;;;;;;;8.37;2.60;;;;;;;;;;5036240;28;20087;-70
2023/11/04 02:08:06;;;;;;;10.57;2.70;;;;;;;;;;5038082;28;20036;-69
2023/11/04 02:10:31;;;;;;;5.80;2.50;;;;;;;;;;5031353;28;20027;-68
2023/11/04 02:12:56;;;;;;;10.77;3.00;;;;;;;;;;5036656;28;20029;-68
2023/11/04 02:15:22;;;;;;;6.63;2.23;;;;;;;;;;5035832;28;20029;-67
2023/11/04 02:17:47;;;;;;;9.23;2.40;;;;;;;;;;5034571;28;20036;-68
2023/11/04 02:20:13;;;;;;;9.20;2.60;;;;;;;;;;5035883;28;20021;-66
2023/11/04 02:22:39;;;;;;;8.03;2.67;;;;;;;;;;5035017;28;20121;-67
2023/11/04 02:25:04;;;;;;;5.90;2.43;;;;;;;;;;5035557;28;20103;-67
2023/11/04 02:27:30;;;;;;;10.30;2.60;;;;;;;;;;5034556;28;20044;-68
2023/11/04 02:29:55;;;;;;;6.87;2.63;;;;;;;;;;5033369;28;20078;-68
2023/11/04 02:32:21;;;;;;;8.07;2.30;;;;;;;;;;5034913;28;20234;-67
2023/11/04 02:34:46;;;;;;;5.17;1.83;;;;;;;;;;5035920;28;20021;-68
2023/11/04 02:37:11;;;;;;;9.13;2.10;;;;;;;;;;5036406;28;20378;-67
2023/11/04 02:39:36;;;;;;;6.17;2.20;;;;;;;;;;5032581;28;20523;-67
2023/11/04 02:42:02;;;;;;;7.57;2.10;;;;;;;;;;5037049;28;20373;-69
2023/11/04 02:44:27;;;;;;;8.30;2.10;;;;;;;;;;5035647;28;20393;-68
2023/11/04 02:46:52;;;;;;;7.43;1.93;;;;;;;;;;5034406;28;20021;-68
2023/11/04 02:49:17;;;;;;;4.60;1.83;;;;;;;;;;5036010;28;20036;-67
2023/11/04 02:51:43;;;;;;;7.47;2.20;;;;;;;;;;5036854;28;20096;-68
2023/11/04 02:54:08;;;;;;;5.27;2.10;;;;;;;;;;5038900;28;20465;-67
2023/11/04 02:56:33;;;;;;;7.37;2.10;;;;;;;;;;5034896;28;20022;-68
2023/11/04 02:58:58;;;;;;;5.80;2.10;;;;;;;;;;5038029;28;20154;-68
2023/11/04 03:01:24;;;;;;;6.90;1.77;;;;;;;;;;5036048;28;20385;-67
2023/11/04 03:03:49;;;;;;;6.90;2.43;;;;;;;;;;5034999;28;20093;-67
2023/11/04 03:06:21;;;;;;;6.97;1.87;;;;;;;;;;5034927;28;20472;-66
2023/11/04 03:08:47;;;;;;;9.17;2.13;;;;;;;;;;5039577;28;20029;-69
2023/11/04 03:11:13;;;;;;;4.67;1.83;;;;;;;;;;5036761;28;20029;-68
2023/11/04 03:13:38;;;;;;;7.80;2.03;;;;;;;;;;5037581;28;20036;-67
2023/11/04 03:16:03;;;;;;;5.57;1.77;;;;;;;;;;5032202;28;20049;-69
2023/11/04 03:18:29;;;;;;;3.80;1.53;;;;;;;;;;5029759;28;20091;-67
2023/11/04 03:20:54;;;;;;;7.20;1.90;;;;;;;;;;5036806;28;20667;-70
2023/11/04 03:23:19;;;;;;;6.83;1.63;;;;;;;;;;5041088;28;20638;-70
2023/11/04 03:25:45;;;;;;;6.77;2.37;;;;;;;;;;5034644;28;20475;-69
2023/11/04 03:28:10;;;;;;;8.17;2.00;;;;;;;;;;5031989;28;20433;-70
2023/11/04 03:30:35;;;;;;;6.27;2.00;;;;;;;;;;5036562;28;20044;-69
2023/11/04 03:33:01;;;;;;;6.10;2.13;;;;;;;;;;5039812;28;20084;-70
2023/11/04 03:35:27;;;;;;;9.33;2.10;;;;;;;;;;5037402;28;20498;-69
2023/11/04 03:37:52;;;;;;;4.77;1.87;;;;;;;;;;5032880;28;20263;-69
2023/11/04 03:40:17;;;;;;;7.93;1.80;;;;;;;;;;5032648;28;20278;-69
2023/11/04 03:42:43;;;;;;;5.03;1.80;;;;;;;;;;5038620;28;20026;-70
2023/11/04 03:45:09;;;;;;;6.47;2.00;;;;;;;;;;5038043;28;20148;-69
2023/11/04 03:47:34;;;;;;;6.00;1.43;;;;;;;;;;5031026;28;20382;-70
2023/11/04 03:49:59;;;;;;;6.20;1.60;;;;;;;;;;5038889;28;20330;-68
2023/11/04 03:52:24;;;;;;;4.87;1.50;;;;;;;;;;5036987;28;20075;-69
2023/11/04 03:54:50;;;;;;;5.47;1.70;;;;;;;;;;5039511;28;20131;-70
2023/11/04 03:57:15;;;;;;;7.03;1.40;;;;;;;;;;5037220;28;20021;-69
2023/11/04 03:59:40;;;;;;;4.73;1.50;;;;;;;;;;5038249;28;20103;-70
2023/11/04 04:02:07;;;;;;;7.53;1.50;;;;;;;;;;5041865;28;20032;-69
2023/11/04 04:04:32;;;;;;;5.07;1.40;;;;;;;;;;5036454;28;20045;-70
2023/11/04 04:06:58;;;;;;;4.83;1.23;;;;;;;;;;5036778;28;20029;-69
2023/11/04 04:09:23;;;;;;;4.00;1.50;;;;;;;;;;5037442;28;20082;-69
2023/11/04 04:11:48;;;;;;;4.77;1.30;;;;;;;;;;5042907;28;20438;-69
2023/11/04 04:14:13;;;;;;;3.70;1.33;;;;;;;;;;5036827;28;20025;-70
2023/11/04 04:16:38;;;;;;;4.40;1.43;;;;;;;;;;5038558;28;20032;-69
2023/11/04 04:19:04;;;;;;;8.13;1.40;;;;;;;;;;5038535;28;20035;-69
2023/11/04 04:21:29;;;;;;;5.80;1.30;;;;;;;;;;5034965;28;20060;-69
2023/11/04 04:23:55;;;;;;;5.03;1.10;;;;;;;;;;5035472;28;20537;-70
2023/11/04 04:26:20;;;;;;;4.97;1.33;;;;;;;;;;5036028;28;20099;-68
2023/11/04 04:28:46;;;;;;;4.00;1.10;;;;;;;;;;5034463;28;20065;-69
2023/11/04 04:31:12;;;;;;;4.30;1.20;;;;;;;;;;5041750;28;20444;-68
2023/11/04 04:33:37;;;;;;;4.60;1.10;;;;;;;;;;5039325;28;20553;-68
2023/11/04 04:36:03;;;;;;;5.47;1.57;;;;;;;;;;5035817;28;20108;-68
2023/11/04 04:38:28;;;;;;;3.20;1.20;;;;;;;;;;5033980;28;20485;-66
2023/11/04 04:40:53;;;;;;;4.43;1.23;;;;;;;;;;5040606;28;20057;-69
2023/11/04 04:43:19;;;;;;;3.23;1.20;;;;;;;;;;5041183;28;20041;-67
2023/11/04 04:45:44;;;;;;;5.17;1.17;;;;;;;;;;5034251;28;20033;-67
2023/11/04 04:48:09;;;;;;;3.57;1.20;;;;;;;;;;5031458;28;20445;-68
2023/11/04 04:50:35;;;;;;;2.93;1.00;;;;;;;;;;5041830;28;20394;-67
2023/11/04 04:53:00;;;;;;;2.80;1.03;;;;;;;;;;5041691;28;20115;-66
2023/11/04 04:55:25;;;;;;;3.27;0.97;;;;;;;;;;5036516;28;20237;-68
2023/11/04 04:57:50;;;;;;;3.23;0.97;;;;;;;;;;5033659;28;20018;-68
2023/11/04 05:00:16;;;;;;;4.93;1.03;;;;;;;;;;5040596;28;20029;-66
2023/11/04 05:02:42;;;;;;;4.17;1.23;;;;;;;;;;5039505;28;20537;-67
2023/11/04 05:05:09;;;;;;;3.77;1.13;;;;;;;;;;5037716;28;20397;-67
2023/11/04 05:07:34;;;;;;;2.87;1.00;;;;;;;;;;5034855;28;20458;-67
2023/11/04 05:10:00;;;;;;;3.87;1.03;;;;;;;;;;5040702;28;20187;-67
2023/11/04 05:12:26;;;;;;;3.23;1.20;;;;;;;;;;5033508;28;20028;-67
2023/11/04 05:14:51;;;;;;;2.90;1.00;;;;;;;;;;5037028;28;20017;-68
2023/11/04 05:17:17;;;;;;;2.47;0.97;;;;;;;;;;5035661;28;20040;-67
2023/11/04 05:19:42;;;;;;;4.33;1.20;;;;;;;;;;5034112;28;20025;-65
2023/11/04 05:22:07;;;;;;;3.67;1.10;;;;;;;;;;5037442;28;20029;-66
2023/11/04 05:24:34;;;;;;;3.83;0.83;;;;;;;;;;5037346;28;20024;-69
2023/11/04 05:27:01;;;;;;;2.87;0.97;;;;;;;;;;5041083;28;20031;-67
2023/11/04 05:29:26;;;;;;;5.27;1.10;;;;;;;;;;5038602;28;20229;-67
2023/11/04 05:31:51;;;;;;;8.17;1.10;;;;;;;;;;5037108;28;20102;-68
2023/11/04 05:34:17;;;;;;;3.67;1.07;;;;;;;;;;5033817;28;20036;-65
2023/11/04 05:36:44;;;;;;;3.73;0.90;;;;;;;;;;5038233;28;20064;-66
2023/11/04 05:39:10;;;;;;;3.67;0.90;;;;;;;;;;5035859;28;20057;-68
2023/11/04 05:41:35;;;;;;;3.33;1.20;;;;;;;;;;5042046;28;20151;-67
2023/11/04 05:44:00;;;;;;;2.83;0.97;;;;;;;;;;5035550;28;20027;-65
2023/11/04 05:46:25;;;;;;;5.20;1.77;;;;;;;;;;5032938;28;20108;-67
2023/11/04 05:48:51;;;;;;;2.50;0.90;;;;;;;;;;5037289;28;20037;-68
2023/11/04 05:51:23;;;;;;;3.73;0.90;;;;;;;;;;5039854;28;20064;-69
2023/11/04 05:53:48;;;;;;;3.13;0.80;;;;;;;;;;5038454;28;20036;-69
2023/11/04 05:56:16;;;;;;;4.00;0.93;;;;;;;;;;5039121;28;20473;-68
2023/11/04 05:58:41;;;;;;;4.57;1.10;;;;;;;;;;5032151;28;20484;-70
2023/11/04 06:01:07;;;;;;;3.47;1.00;;;;;;;;;;5035584;28;20078;-68
2023/11/04 06:03:33;;;;;;;2.73;1.00;;;;;;;;;;5033425;28;20052;-67
2023/11/04 06:05:58;;;;;;;3.70;0.90;;;;;;;;;;5035558;28;20165;-68
2023/11/04 06:08:24;;;;;;;3.63;0.93;;;;;;;;;;5034043;28;20041;-67
2023/11/04 06:10:49;;;;;;;3.53;1.10;;;;;;;;;;5035226;28;20099;-67
2023/11/04 06:13:14;;;;;;;5.33;0.97;;;;;;;;;;5035656;28;20072;-68
2023/11/04 06:15:40;;;;;;;5.93;1.10;;;;;;;;;;5035702;28;20132;-67
2023/11/04 06:18:05;;;;;;;4.40;1.30;;;;;;;;;;5033993;28;20036;-67
2023/11/04 06:20:30;;;;;;;5.53;1.17;;;;;;;;;;5036108;28;20025;-67
2023/11/04 06:22:56;;;;;;;2.83;1.17;;;;;;;;;;5039861;28;20224;-67
2023/11/04 06:25:21;;;;;;;2.90;0.90;;;;;;;;;;5034307;28;20029;-67
2023/11/04 06:27:46;;;;;;;6.27;1.00;;;;;;;;;;5035875;28;20047;-67
2023/11/04 06:30:13;;;;;;;3.10;1.00;;;;;;;;;;5034872;28;20080;-67
2023/11/04 06:32:38;;;;;;;2.37;0.80;;;;;;;;;;5038646;28;20025;-67
2023/11/04 06:35:05;;;;;;;8.07;1.40;;;;;;;;;;5040461;28;20010;-68
2023/11/04 06:37:30;;;;;;;5.80;0.87;;;;;;;;;;5033401;28;20022;-67
2023/11/04 06:39:55;;;;;;;1.60;0.77;;;;;;;;;;5035364;28;20021;-67
2023/11/04 06:42:26;;;;;;;3.70;0.90;;;;;;;;;;5030231;28;20017;-67
2023/11/04 06:44:51;;;;;;;3.07;0.80;;;;;;;;;;5030378;28;20540;-67
2023/11/04 06:47:17;;;;;;;2.40;0.73;;;;;;;;;;5037788;28;20025;-68
2023/11/04 06:49:42;;;;;;;2.50;0.70;;;;;;;;;;5034001;28;20024;-67
2023/11/04 06:52:07;;;;;;;1.13;0.60;;;;;;;;;;5031652;28;20018;-70
2023/11/04 06:54:33;;;;;;;2.87;0.80;;;;;;;;;;5031758;28;20025;-70
2023/11/04 06:56:58;;;;;;;1.60;0.70;;;;;;;;;;5036835;28;20029;-69
2023/11/04 06:59:23;;;;;;;2.83;1.00;;;;;;;;;;5036120;28;20083;-70
2023/11/04 07:01:49;;;;;;;1.87;0.70;;;;;;;;;;5036594;28;20433;-70
2023/11/04 07:04:14;;;;;;;2.80;0.83;;;;;;;;;;5031475;28;20490;-70
2023/11/04 07:06:40;;;;;;;3.13;0.83;;;;;;;;;;5036614;28;20024;-69
2023/11/04 07:09:06;;;;;;;1.50;0.70;;;;;;;;;;5035539;28;20106;-68
2023/11/04 07:11:31;;;;;;;1.80;0.60;;;;;;;;;;5031022;28;20029;-67
2023/11/04 07:13:56;;;;;;;2.03;0.73;;;;;;;;;;5033893;28;20044;-69
2023/11/04 07:16:21;;;;;;;2.33;0.70;;;;;;;;;;5033020;28;20390;-64
2023/11/04 07:18:46;;;;;;;1.93;0.80;;;;;;;;;;5035143;28;20485;-66
2023/11/04 07:21:12;;;;;;;3.67;0.80;;;;;;;;;;5035988;28;20482;-66
2023/11/04 07:23:37;;;;;;;1.63;0.70;;;;;;;;;;5039578;28;20435;-64
2023/11/04 07:26:03;;;;;;;5.70;0.90;;;;;;;;;;5033178;28;20025;-68
2023/11/04 07:28:35;;;;;;;2.80;0.80;;;;;;;;;;5037192;28;20571;-68
2023/11/04 07:31:01;;;;;;;2.43;0.93;;;;;;;;;;5038014;28;20604;-69
2023/11/04 07:33:26;;;;;;;1.90;0.80;;;;;;;;;;5037222;28;20112;-67
2023/11/04 07:35:51;;;;;;;2.30;0.70;;;;;;;;;;5038467;28;20378;-68
2023/11/04 07:38:17;;;;;;;1.83;0.70;;;;;;;;;;5039014;28;20432;-68
2023/11/04 07:40:42;;;;;;;2.83;0.90;;;;;;;;;;5035326;28;20507;-66
2023/11/04 07:43:08;;;;;;;2.27;0.77;;;;;;;;;;5035471;28;20528;-66
2023/11/04 07:45:33;;;;;;;1.70;0.77;;;;;;;;;;5038411;28;20036;-66
2023/11/04 07:47:58;;;;;;;2.10;0.77;;;;;;;;;;5038376;28;20096;-65
2023/11/04 07:50:24;;;;;;;1.30;0.70;;;;;;;;;;5033580;28;20021;-67
2023/11/04 07:52:49;;;;;;;1.70;0.70;;;;;;;;;;5036909;28;20017;-65
2023/11/04 07:55:14;;;;;;;1.33;0.70;;;;;;;;;;5042437;28;20374;-66
2023/11/04 07:57:39;;;;;;;1.97;0.90;;;;;;;;;;5041625;28;20082;-68
2023/11/04 08:00:07;;;;;;;1.27;0.53;;;;;;;;;;5042328;28;20037;-66
2023/11/04 08:02:33;;;;;;;2.80;0.80;;;;;;;;;;5038335;28;20497;-64
2023/11/04 08:05:00;;;;;;;2.53;0.73;;;;;;;;;;5040486;28;20080;-65
2023/11/04 08:07:26;;;;;;;3.67;0.90;;;;;;;;;;5041277;28;20036;-64
2023/11/04 08:09:51;;;;;;;2.50;0.80;;;;;;;;;;5039993;28;20437;-65
2023/11/04 08:12:17;;;;;;;4.37;0.70;;;;;;;;;;5037705;28;20039;-63
2023/11/04 08:14:42;;;;;;;2.97;0.80;;;;;;;;;;5035108;28;20116;-62
2023/11/04 08:17:07;;;;;;;4.67;0.90;;;;;;;;;;5039827;28;20376;-63
2023/11/04 08:19:33;;;;;;;2.07;0.73;;;;;;;;;;5039316;28;20563;-63
2023/11/04 08:21:58;;;;;;;1.57;0.80;;;;;;;;;;5036206;28;20465;-65
2023/11/04 08:24:23;;;;;;;3.73;0.80;;;;;;;;;;5037680;28;20044;-65
2023/11/04 08:26:48;;;;;;;2.43;0.77;;;;;;;;;;5041486;28;20056;-66
2023/11/04 08:29:14;;;;;;;2.37;0.83;;;;;;;;;;5039665;28;20055;-67
2023/11/04 08:31:40;;;;;;;2.17;0.70;;;;;;;;;;5033639;28;20031;-65
2023/11/04 08:34:05;;;;;;;2.77;0.80;;;;;;;;;;5032532;28;20013;-65
2023/11/04 08:36:30;;;;;;;3.07;0.80;;;;;;;;;;5039784;28;20527;-65
2023/11/04 08:38:55;;;;;;;2.73;1.07;;;;;;;;;;5040872;28;20448;-65
2023/11/04 08:41:21;;;;;;;1.93;0.60;;;;;;;;;;5040527;28;20448;-64
2023/11/04 08:43:46;;;;;;;3.00;0.70;;;;;;;;;;5037119;28;20409;-65
2023/11/04 08:46:18;;;;;;;2.33;0.90;;;;;;;;;;5035919;28;20487;-63
2023/11/04 08:48:43;;;;;;;2.17;0.80;;;;;;;;;;5040789;28;20427;-63
2023/11/04 08:51:09;;;;;;;1.83;0.70;;;;;;;;;;5039946;28;20036;-64
2023/11/04 08:53:35;;;;;;;2.47;0.70;;;;;;;;;;5030422;28;20496;-64
2023/11/04 08:56:00;;;;;;;1.03;0.70;;;;;;;;;;5038374;28;20264;-62
2023/11/04 08:58:26;;;;;;;2.83;0.70;;;;;;;;;;5038608;28;20017;-64
2023/11/04 09:00:51;;;;;;;2.63;0.80;;;;;;;;;;5039852;28;20150;-64
2023/11/04 09:03:17;;;;;;;1.53;0.70;;;;;;;;;;5039393;28;20132;-63
2023/11/04 09:05:42;;;;;;;3.27;0.70;;;;;;;;;;5037485;28;20504;-64
2023/11/04 09:08:08;;;;;;;1.33;0.70;;;;;;;;;;5037361;28;20029;-64
2023/11/04 09:10:33;;;;;;;2.43;0.80;;;;;;;;;;5041527;28;20056;-64
2023/11/04 09:12:58;;;;;;;1.93;0.77;;;;;;;;;;5040238;28;20480;-62
2023/11/04 09:15:23;;;;;;;1.73;0.60;;;;;;;;;;5038098;28;20084;-64
2023/11/04 09:17:49;;;;;;;1.07;0.60;;;;;;;;;;5037982;28;20062;-64
2023/11/04 09:20:14;;;;;;;1.20;0.60;;;;;;;;;;5034429;28;20203;-64
2023/11/04 09:22:39;;;;;;;2.20;0.60;;;;;;;;;;5035138;28;20032;-62
2023/11/04 09:25:05;;;;;;;2.03;0.70;;;;;;;;;;5037127;28;20028;-65
2023/11/04 09:27:30;;;;;;;2.50;0.70;;;;;;;;;;5038162;28;20457;-64
2023/11/04 09:29:58;;;;;;;1.37;0.60;;;;;;;;;;5039072;28;20078;-64
2023/11/04 09:32:23;;;;;;;1.83;0.57;;;;;;;;;;5037078;28;20551;-61
2023/11/04 09:34:48;;;;;;;1.60;0.60;;;;;;;;;;5039214;28;20029;-62
2023/11/04 09:37:13;;;;;;;1.33;0.70;;;;;;;;;;5037876;28;20079;-60
2023/11/04 09:39:39;;;;;;;3.03;0.70;;;;;;;;;;5037996;28;20104;-61
2023/11/04 09:42:07;;;;;;;4.73;0.63;;;;;;;;;;5032942;28;20036;-62
2023/11/04 09:44:33;;;;;;;1.97;0.63;;;;;;;;;;5037806;28;20373;-63
2023/11/04 09:46:58;;;;;;;1.67;0.70;;;;;;;;;;5034012;28;20032;-61
2023/11/04 09:49:24;;;;;;;1.20;0.47;;;;;;;;;;5037415;28;20025;-62
2023/11/04 09:51:49;;;;;;;2.80;0.97;;;;;;;;;;5034325;28;20148;-62
2023/11/04 09:54:16;;;;;;;2.17;0.70;;;;;;;;;;5036454;28;20031;-61
2023/11/04 09:56:41;;;;;;;2.27;0.70;;;;;;;;;;5036606;28;20028;-62
2023/11/04 09:59:07;;;;;;;2.60;0.90;;;;;;;;;;5034888;28;20032;-63
2023/11/04 10:01:32;;;;;;;1.80;0.70;;;;;;;;;;5034699;28;20051;-62
2023/11/04 10:03:57;;;;;;;2.50;0.60;;;;;;;;;;5035747;28;20084;-61
2023/11/04 10:06:23;;;;;;;1.90;0.70;;;;;;;;;;5037051;28;20033;-61
2023/11/04 10:08:48;;;;;;;2.10;0.70;;;;;;;;;;5032530;28;20442;-62
2023/11/04 10:11:14;;;;;;;2.43;0.60;;;;;;;;;;5038074;28;20083;-61
2023/11/04 10:13:39;;;;;;;1.93;0.70;;;;;;;;;;5038138;28;20464;-62
2023/11/04 10:16:04;;;;;;;1.67;0.60;;;;;;;;;;5037201;28;20105;-62
2023/11/04 10:18:32;;;;;;;3.97;0.83;;;;;;;;;;5033411;28;20021;-60
2023/11/04 10:20:58;;;;;;;2.30;0.60;;;;;;;;;;5034863;28;20515;-62
2023/11/04 10:23:23;;;;;;;1.77;0.60;;;;;;;;;;5040842;28;20029;-62
2023/11/04 10:25:48;;;;;;;2.27;0.80;;;;;;;;;;5030394;28;20058;-64
2023/11/04 10:28:16;;;;;;;2.80;0.70;;;;;;;;;;5036277;28;20029;-63
2023/11/04 10:30:41;;;;;;;2.03;0.80;;;;;;;;;;5034229;28;20063;-65
2023/11/04 10:33:07;;;;;;;1.57;0.70;;;;;;;;;;5034487;28;20049;-62
2023/11/04 10:35:33;;;;;;;1.50;0.67;;;;;;;;;;5033548;28;20029;-61
2023/11/04 10:37:59;;;;;;;1.97;0.70;;;;;;;;;;5031483;28;20021;-62
2023/11/04 10:40:25;;;;;;;2.07;0.80;;;;;;;;;;5034629;28;20100;-66
2023/11/04 10:42:55;;;;;;;1.90;0.70;;;;;;;;;;5032792;28;20020;-66
2023/11/04 10:45:25;;;;;;;2.20;0.70;;;;;;;;;;5039524;28;20489;-66
2023/11/04 10:48:04;;;;;;;4.37;0.80;;;;;;;;;;5033135;28;20035;-66
2023/11/04 10:50:34;;;;;;;3.70;0.80;;;;;;;;;;5034496;28;20028;-65
2023/11/04 10:53:12;;;;;;;2.53;0.90;;;;;;;;;;5036765;28;20052;-65
2023/11/04 10:55:45;;;;;;;1.73;0.73;;;;;;;;;;5033473;28;20461;-66
2023/11/04 10:58:13;;;;;;;1.63;0.80;;;;;;;;;;5033233;28;20107;-66
2023/11/04 11:00:40;;;;;;;4.63;0.87;;;;;;;;;;5035894;28;20017;-65
2023/11/04 11:03:06;;;;;;;2.97;0.90;;;;;;;;;;5033152;28;20037;-65
2023/11/04 11:05:32;;;;;;;2.20;0.90;;;;;;;;;;5035304;28;20249;-65
2023/11/04 11:07:57;;;;;;;2.73;0.93;;;;;;;;;;5035071;28;20028;-66
2023/11/04 11:10:27;;;;;;;2.20;1.00;;;;;;;;;;5034937;28;20223;-65
2023/11/04 11:12:55;;;;;;;2.30;1.00;;;;;;;;;;5034718;28;20580;-66
2023/11/04 11:15:21;;;;;;;1.40;0.80;;;;;;;;;;5031607;28;20119;-65
2023/11/04 11:17:56;;;;;;;1.90;0.90;;;;;;;;;;5033593;28;22793;-65
2023/11/04 11:20:32;;;;;;;2.33;0.90;;;;;;;;;;5035511;28;20481;-66
2023/11/04 11:22:59;;;;;;;1.60;0.90;;;;;;;;;;5034505;28;20032;-65
2023/11/04 11:25:29;;;;;;;1.73;0.70;;;;;;;;;;5036933;28;20478;-65
2023/11/04 11:27:55;;;;;;;1.80;0.77;;;;;;;;;;5030418;28;20021;-66
2023/11/04 11:30:21;;;;;;;0.93;0.60;;;;;;;;;;5029930;28;20108;-65
2023/11/04 11:32:46;;;;;;;2.47;0.70;;;;;;;;;;5034840;28;20661;-65
2023/11/04 11:35:12;;;;;;;2.50;0.90;;;;;;;;;;5035944;28;20108;-65
2023/11/04 11:37:37;;;;;;;1.30;0.70;;;;;;;;;;5033789;28;20452;-65
2023/11/04 11:40:12;;;;;;;2.35;0.85;;;;;;;;;;5033276;28;20021;-66
2023/11/04 11:42:37;;;;;;;3.15;0.93;;;;;;;;;;5036863;28;20025;-66
2023/11/04 11:45:02;;;;;;;1.77;0.80;;;;;;;;;;5034050;28;20072;-65
2023/11/04 11:47:28;;;;;;;2.72;0.75;;;;;;;;;;5036075;28;20032;-68
2023/11/04 11:49:54;;;;;;;4.80;1.00;;;;;;;;;;5034471;28;20044;-65
2023/11/04 11:52:20;;;;;;;1.85;0.73;;;;;;;;;;5035658;28;20080;-63
2023/11/04 11:54:45;;;;;;;1.40;0.80;;;;;;;;;;5034676;28;20022;-65
2023/11/04 11:57:11;;;;;;;2.37;0.80;;;;;;;;;;5033035;28;20466;-65
2023/11/04 11:59:37;;;;;;;3.10;0.87;;;;;;;;;;5033308;28;20259;-65
2023/11/04 12:02:02;;;;;;;2.58;0.80;;;;;;;;;;5034797;28;20032;-65
2023/11/04 12:04:27;;;;;;;2.13;0.90;;;;;;;;;;5035485;28;20429;-65
2023/11/04 12:06:53;;;;;;;4.38;1.00;;;;;;;;;;5034758;28;20025;-66
2023/11/04 12:09:23;;;;;;;2.20;0.80;;;;;;;;;;5033162;28;20021;-66
2023/11/04 12:11:52;;;;;;;1.65;0.80;;;;;;;;;;5039385;28;20163;-63
2023/11/04 12:14:17;;;;;;;3.07;0.87;;;;;;;;;;5034905;28;20025;-65
2023/11/04 12:16:43;;;;;;;2.47;0.83;;;;;;;;;;5037914;28;20040;-66
2023/11/04 12:19:09;;;;;;;2.47;0.70;;;;;;;;;;5038346;28;20025;-64
2023/11/04 12:21:34;;;;;;;2.13;0.60;;;;;;;;;;5040393;28;20075;-64
2023/11/04 12:24:01;;;;;;;2.30;0.80;;;;;;;;;;5035281;28;20037;-64
2023/11/04 12:26:32;;;;;;;2.73;0.80;;;;;;;;;;5026099;28;20583;-65
2023/11/04 12:28:58;;;;;;;2.10;0.80;;;;;;;;;;5034108;28;20029;-64
2023/11/04 12:31:26;;;;;;;1.80;0.70;;;;;;;;;;5038130;28;20028;-63
2023/11/04 12:33:51;;;;;;;2.80;0.63;;;;;;;;;;5036959;28;20033;-66
2023/11/04 12:36:17;;;;;;;3.17;0.80;;;;;;;;;;5032308;28;20025;-64
2023/11/04 12:38:42;;;;;;;1.33;0.67;;;;;;;;;;5037438;28;20100;-64
2023/11/04 12:41:11;;;;;;;2.00;0.80;;;;;;;;;;5040795;28;20120;-65
2023/11/04 12:43:37;;;;;;;2.07;0.60;;;;;;;;;;5035969;28;20129;-64
2023/11/04 12:46:03;;;;;;;2.47;0.70;;;;;;;;;;5036991;28;20032;-64
2023/11/04 12:48:28;;;;;;;1.90;0.70;;;;;;;;;;5033367;28;20025;-64
2023/11/04 12:50:53;;;;;;;1.90;0.80;;;;;;;;;;5040511;28;20009;-65
2023/11/04 12:53:19;;;;;;;4.17;0.90;;;;;;;;;;5035710;28;20039;-65
2023/11/04 12:55:47;;;;;;;1.90;0.70;;;;;;;;;;5037434;28;20053;-65
2023/11/04 12:58:12;;;;;;;3.20;0.93;;;;;;;;;;5030728;28;20049;-65
2023/11/04 13:00:38;;;;;;;2.17;0.90;;;;;;;;;;5033924;28;20345;-65
2023/11/04 13:03:03;;;;;;;2.20;0.80;;;;;;;;;;5039198;28;20068;-64
2023/11/04 13:05:30;;;;;;;3.20;0.90;;;;;;;;;;5036337;28;20052;-65
2023/11/04 13:07:56;;;;;;;1.83;0.90;;;;;;;;;;5032171;28;20116;-64
2023/11/04 13:10:21;;;;;;;3.07;0.90;;;;;;;;;;5023919;28;20029;-64
2023/11/04 13:12:47;;;;;;;1.83;0.80;;;;;;;;;;5035567;28;20023;-64
2023/11/04 13:15:13;;;;;;;2.47;0.80;;;;;;;;;;5037503;28;20053;-66
2023/11/04 13:17:39;;;;;;;1.53;0.80;;;;;;;;;;5033514;28;20026;-65
2023/11/04 13:20:04;;;;;;;1.70;0.70;;;;;;;;;;5040324;28;20607;-64
2023/11/04 13:22:30;;;;;;;1.53;0.77;;;;;;;;;;5036483;28;20044;-64
2023/11/04 13:24:55;;;;;;;2.10;0.80;;;;;;;;;;5038486;28;20029;-65
2023/11/04 13:27:20;;;;;;;1.33;0.70;;;;;;;;;;5034533;28;20076;-67
2023/11/04 13:29:47;;;;;;;2.90;1.00;;;;;;;;;;5038859;28;20108;-64
2023/11/04 13:32:12;;;;;;;1.90;0.90;;;;;;;;;;5034936;28;20120;-64
2023/11/04 13:34:38;;;;;;;1.97;0.73;;;;;;;;;;5034471;28;20100;-64
2023/11/04 13:37:03;;;;;;;2.77;0.90;;;;;;;;;;5035918;28;20108;-66
2023/11/04 13:39:28;;;;;;;1.77;0.80;;;;;;;;;;5036743;28;20386;-64
2023/11/04 13:41:54;;;;;;;1.33;0.60;;;;;;;;;;5036810;28;20037;-64
2023/11/04 13:44:20;;;;;;;2.60;0.90;;;;;;;;;;5032968;28;20370;-65
2023/11/04 13:46:48;;;;;;;2.40;0.87;;;;;;;;;;5035484;28;20388;-64
2023/11/04 13:49:13;;;;;;;2.53;0.90;;;;;;;;;;5035581;28;20373;-66
2023/11/04 13:51:39;;;;;;;1.67;0.87;;;;;;;;;;5034450;28;20034;-64
2023/11/04 13:54:05;;;;;;;1.90;0.80;;;;;;;;;;5032963;28;20052;-64
2023/11/04 13:56:31;;;;;;;1.80;0.70;;;;;;;;;;5034621;28;20470;-64
2023/11/04 13:58:56;;;;;;;1.70;0.77;;;;;;;;;;5033324;28;20282;-64
2023/11/04 14:01:21;;;;;;;2.93;0.80;;;;;;;;;;5037395;28;20082;-64
2023/11/04 14:03:46;;;;;;;0.80;0.60;;;;;;;;;;5036120;28;20115;-64
2023/11/04 14:06:11;;;;;;;1.93;0.70;;;;;;;;;;5036181;28;20356;-66
2023/11/04 14:08:37;;;;;;;1.70;0.70;;;;;;;;;;5039042;28;20016;-66
2023/11/04 14:11:02;;;;;;;1.40;0.70;;;;;;;;;;5039265;28;20021;-64
2023/11/04 14:13:27;;;;;;;3.57;0.93;;;;;;;;;;5036450;28;20127;-62
2023/11/04 14:15:53;;;;;;;4.23;1.07;;;;;;;;;;5034520;28;20171;-61
2023/11/04 14:18:18;;;;;;;2.90;0.80;;;;;;;;;;5036441;28;20398;-62
2023/11/04 14:20:43;;;;;;;3.03;1.00;;;;;;;;;;5037182;28;20339;-63
2023/11/04 14:23:09;;;;;;;1.57;0.87;;;;;;;;;;5037771;28;20151;-64
2023/11/04 14:25:34;;;;;;;1.87;0.70;;;;;;;;;;5034347;28;20060;-65
2023/11/04 14:27:59;;;;;;;1.77;0.80;;;;;;;;;;5036103;28;20258;-65
2023/11/04 14:30:25;;;;;;;1.00;0.50;;;;;;;;;;5035306;28;20044;-66
2023/11/04 14:32:50;;;;;;;2.13;0.90;;;;;;;;;;5036331;28;20517;-65
2023/11/04 14:35:15;;;;;;;2.37;0.80;;;;;;;;;;5035209;28;20051;-64